createdAt,value
2023-01-29T00:01:26.421Z,94808.00
2023-01-29T00:03:53.971Z,94813.20
2023-01-29T00:06:23.313Z,94811.40
2023-01-29T00:08:50.838Z,94810.00
2023-01-29T00:11:18.385Z,94805.60
2023-01-29T00:13:45.890Z,94805.40
2023-01-29T00:16:13.384Z,94808.40
2023-01-29T00:18:41.024Z,94816.20
2023-01-29T00:21:08.558Z,94810.00
2023-01-29T00:23:36.040Z,94803.40
2023-01-29T00:26:03.583Z,94803.40
2023-01-29T00:28:31.233Z,94800.80
2023-01-29T00:30:58.905Z,94796.00
2023-01-29T00:33:26.464Z,94799.20
2023-01-29T00:35:54.042Z,94801.40
2023-01-29T00:38:21.566Z,94806.60
2023-01-29T00:41:22.074Z,94803.00
2023-01-29T00:44:08.284Z,94798.80
2023-01-29T00:46:35.995Z,94806.20
2023-01-29T00:49:03.575Z,94802.60
2023-01-29T00:51:31.117Z,94809.20
2023-01-29T00:53:58.670Z,94810.20
2023-01-29T00:56:26.174Z,94810.20
2023-01-29T00:58:53.666Z,94810.20
2023-01-29T01:01:41.266Z,94814.20
2023-01-29T01:04:08.895Z,94815.60
2023-01-29T01:06:36.464Z,94815.20
2023-01-29T01:09:22.718Z,94816.20
2023-01-29T01:11:50.282Z,94813.80
2023-01-29T01:14:17.835Z,94822.60
2023-01-29T01:16:45.440Z,94823.40
2023-01-29T01:19:13.671Z,94819.60
2023-01-29T01:21:45.371Z,94813.20
2023-01-29T01:24:13.001Z,94811.00
2023-01-29T01:26:40.620Z,94811.80
2023-01-29T01:29:08.101Z,94812.20
2023-01-29T01:31:35.695Z,94816.00
2023-01-29T01:34:03.300Z,94811.40
2023-01-29T01:36:32.365Z,94803.20
2023-01-29T01:39:00.112Z,94805.40
2023-01-29T01:41:27.758Z,94809.00
2023-01-29T01:43:55.652Z,94813.80
2023-01-29T01:46:23.692Z,94814.80
2023-01-29T01:48:51.172Z,94820.00
2023-01-29T01:51:18.669Z,94821.80
2023-01-29T01:53:46.275Z,94818.00
2023-01-29T01:56:13.806Z,94818.40
2023-01-29T01:58:41.305Z,94823.20
2023-01-29T02:01:08.961Z,94820.20
2023-01-29T02:03:55.229Z,94816.60
2023-01-29T02:06:41.888Z,94815.60
2023-01-29T02:09:28.453Z,94817.00
2023-01-29T02:11:56.009Z,94808.80
2023-01-29T02:14:23.626Z,94813.40
2023-01-29T02:16:51.120Z,94813.60
2023-01-29T02:19:18.995Z,94813.00
2023-01-29T02:21:46.600Z,94810.20
2023-01-29T02:24:14.284Z,94813.60
2023-01-29T02:26:41.976Z,94811.00
2023-01-29T02:29:26.962Z,94814.00
2023-01-29T02:31:54.552Z,94809.60
2023-01-29T02:34:22.240Z,94816.20
2023-01-29T02:36:49.769Z,94818.60
2023-01-29T02:39:17.393Z,94816.80
2023-01-29T02:41:44.989Z,94812.60
2023-01-29T02:44:12.475Z,94816.60
2023-01-29T02:46:40.140Z,94805.60
2023-01-29T02:49:07.647Z,94809.60
2023-01-29T02:51:35.419Z,94801.60
2023-01-29T02:54:02.995Z,94797.60
2023-01-29T02:56:31.300Z,94794.60
2023-01-29T02:58:58.840Z,94788.40
2023-01-29T03:01:26.499Z,94784.80
2023-01-29T03:03:54.079Z,94780.80
2023-01-29T03:06:22.258Z,94782.40
2023-01-29T03:08:50.205Z,94781.80
2023-01-29T03:11:17.804Z,94774.40
2023-01-29T03:13:45.317Z,94764.80
2023-01-29T03:16:12.870Z,94762.80
2023-01-29T03:18:46.109Z,94761.60
2023-01-29T03:21:32.971Z,94751.40
2023-01-29T03:24:19.461Z,94747.40
2023-01-29T03:27:05.736Z,94745.40
2023-01-29T03:29:52.412Z,94747.60
2023-01-29T03:32:19.960Z,94740.40
2023-01-29T03:34:47.478Z,94747.80
2023-01-29T03:37:15.213Z,94749.60
2023-01-29T03:39:42.758Z,94742.80
2023-01-29T03:42:10.505Z,94741.80
2023-01-29T03:44:40.279Z,94740.80
2023-01-29T03:47:08.074Z,94737.20
2023-01-29T03:49:35.562Z,94739.00
2023-01-29T03:52:03.125Z,94741.80
2023-01-29T03:54:30.708Z,94743.40
2023-01-29T03:56:58.262Z,94738.20
2023-01-29T03:59:25.728Z,94741.40
2023-01-29T04:01:53.259Z,94741.80
2023-01-29T04:04:20.848Z,94745.60
2023-01-29T04:06:48.665Z,94751.00
2023-01-29T04:09:16.276Z,94746.80
2023-01-29T04:11:43.901Z,94754.20
2023-01-29T04:14:11.392Z,94755.20
2023-01-29T04:16:38.950Z,94751.40
2023-01-29T04:19:06.478Z,94755.40
2023-01-29T04:21:34.208Z,94755.40
2023-01-29T04:24:01.784Z,94756.40
2023-01-29T04:26:29.289Z,94754.40
2023-01-29T04:28:56.829Z,94756.60
2023-01-29T04:31:24.498Z,94762.80
2023-01-29T04:33:52.058Z,94765.80
2023-01-29T04:36:19.574Z,94764.20
2023-01-29T04:38:47.153Z,94764.20
2023-01-29T04:41:14.717Z,94758.80
2023-01-29T04:43:42.204Z,94763.60
2023-01-29T04:46:09.713Z,94762.00
2023-01-29T04:48:37.293Z,94758.80
2023-01-29T04:51:05.438Z,94759.00
2023-01-29T04:53:33.026Z,94760.40
2023-01-29T04:56:00.593Z,94754.40
2023-01-29T04:58:28.121Z,94755.40
2023-01-29T05:00:55.851Z,94750.80
2023-01-29T05:03:23.358Z,94758.00
2023-01-29T05:05:50.876Z,94755.20
2023-01-29T05:08:18.691Z,94756.60
2023-01-29T05:10:46.221Z,94764.00
2023-01-29T05:13:13.705Z,94771.80
2023-01-29T05:15:41.522Z,94768.80
2023-01-29T05:18:09.158Z,94776.00
2023-01-29T05:20:36.832Z,94775.20
2023-01-29T05:23:04.630Z,94767.20
2023-01-29T05:25:32.100Z,94767.20
2023-01-29T05:28:16.277Z,94757.80
2023-01-29T05:30:44.388Z,94761.40
2023-01-29T05:33:11.967Z,94746.00
2023-01-29T05:35:39.547Z,94742.00
2023-01-29T05:38:07.083Z,94734.00
2023-01-29T05:40:34.735Z,94722.80
2023-01-29T05:43:02.549Z,94716.40
2023-01-29T05:45:30.085Z,94717.20
2023-01-29T05:47:57.878Z,94717.00
2023-01-29T05:50:25.447Z,94710.60
2023-01-29T05:52:52.925Z,94715.40
2023-01-29T05:55:20.492Z,94714.80
2023-01-29T05:57:48.030Z,94706.00
2023-01-29T06:00:15.831Z,94695.40
2023-01-29T06:02:43.540Z,94696.00
2023-01-29T06:05:11.414Z,94684.60
2023-01-29T06:07:41.740Z,94679.20
2023-01-29T06:10:11.581Z,94680.40
2023-01-29T06:12:39.132Z,94683.20
2023-01-29T06:15:06.667Z,94685.60
2023-01-29T06:17:34.162Z,94686.40
2023-01-29T06:20:01.755Z,94693.80
2023-01-29T06:22:29.272Z,94696.40
2023-01-29T06:24:56.864Z,94702.60
2023-01-29T06:27:24.666Z,94711.20
2023-01-29T06:29:52.181Z,94712.60
2023-01-29T06:32:19.891Z,94717.20
2023-01-29T06:34:49.673Z,94719.80
2023-01-29T06:37:17.340Z,94726.40
2023-01-29T06:39:44.871Z,94735.80
2023-01-29T06:42:12.484Z,94739.40
2023-01-29T06:44:39.977Z,94735.40
2023-01-29T06:47:07.632Z,94741.20
2023-01-29T06:49:35.355Z,94743.20
2023-01-29T06:52:02.888Z,94739.40
2023-01-29T06:54:30.418Z,94738.60
2023-01-29T06:56:58.087Z,94738.80
2023-01-29T06:59:25.602Z,94744.20
2023-01-29T07:01:53.226Z,94755.20
2023-01-29T07:04:20.811Z,94754.40
2023-01-29T07:06:48.299Z,94757.60
2023-01-29T07:09:15.849Z,94758.20
2023-01-29T07:11:43.364Z,94765.80
2023-01-29T07:14:10.888Z,94768.60
2023-01-29T07:16:38.416Z,94772.40
2023-01-29T07:19:06.295Z,94770.40
2023-01-29T07:21:33.798Z,94773.60
2023-01-29T07:24:01.522Z,94773.60
2023-01-29T07:26:29.301Z,94771.60
2023-01-29T07:28:56.839Z,94774.60
2023-01-29T07:31:24.416Z,94771.20
2023-01-29T07:33:52.135Z,94771.60
2023-01-29T07:36:19.671Z,94775.40
2023-01-29T07:38:47.179Z,94771.80
2023-01-29T07:41:14.794Z,94772.40
2023-01-29T07:43:42.323Z,94771.40
2023-01-29T07:46:09.932Z,94770.20
2023-01-29T07:48:37.692Z,94764.60
2023-01-29T07:51:05.226Z,94764.80
2023-01-29T07:53:32.949Z,94763.80
2023-01-29T07:56:00.507Z,94762.00
2023-01-29T07:58:28.042Z,94769.00
2023-01-29T08:00:55.643Z,94766.00
2023-01-29T08:03:23.322Z,94770.00
2023-01-29T08:05:51.130Z,94772.60
2023-01-29T08:08:19.438Z,94775.20
2023-01-29T08:10:47.098Z,94778.00
2023-01-29T08:13:14.848Z,94769.80
2023-01-29T08:15:42.351Z,94778.40
2023-01-29T08:18:09.950Z,94787.00
2023-01-29T08:20:37.484Z,94794.80
2023-01-29T08:23:05.033Z,94799.20
2023-01-29T08:25:32.679Z,94799.80
2023-01-29T08:28:00.723Z,94803.20
2023-01-29T08:30:28.473Z,94811.40
2023-01-29T08:32:56.437Z,94819.60
2023-01-29T08:35:24.103Z,94828.00
2023-01-29T08:37:51.616Z,94839.40
2023-01-29T08:40:19.468Z,94847.40
2023-01-29T08:42:47.182Z,94853.80
2023-01-29T08:45:14.709Z,94848.00
2023-01-29T08:47:42.226Z,94853.00
2023-01-29T08:50:09.704Z,94858.00
2023-01-29T08:52:37.259Z,94861.00
2023-01-29T08:55:04.928Z,94856.60
2023-01-29T08:57:32.406Z,94868.40
2023-01-29T08:59:59.996Z,94877.80
2023-01-29T09:02:27.594Z,94875.40
2023-01-29T09:04:55.934Z,94879.00
2023-01-29T09:07:23.448Z,94879.80
2023-01-29T09:09:51.034Z,94884.60
2023-01-29T09:12:18.767Z,94889.20
2023-01-29T09:14:46.319Z,94883.00
2023-01-29T09:17:14.067Z,94875.40
2023-01-29T09:19:41.583Z,94864.80
2023-01-29T09:22:11.004Z,94875.00
2023-01-29T09:24:40.515Z,94873.20
2023-01-29T09:27:10.007Z,94870.60
2023-01-29T09:29:37.684Z,94876.20
2023-01-29T09:32:05.219Z,94877.00
2023-01-29T09:34:34.685Z,94881.40
2023-01-29T09:37:02.260Z,94877.60
2023-01-29T09:39:30.085Z,94874.20
2023-01-29T09:41:57.746Z,94873.40
2023-01-29T09:44:25.342Z,94859.00
2023-01-29T09:46:52.912Z,94857.80
2023-01-29T09:49:20.496Z,94851.40
2023-01-29T09:51:48.082Z,94849.20
2023-01-29T09:54:15.613Z,94848.60
2023-01-29T09:56:43.111Z,94842.60
2023-01-29T09:59:10.589Z,94843.40
2023-01-29T10:01:38.484Z,94848.40
2023-01-29T10:04:06.088Z,94845.20
2023-01-29T10:06:33.705Z,94839.80
2023-01-29T10:09:01.448Z,94833.80
2023-01-29T10:11:29.111Z,94832.20
2023-01-29T10:13:56.776Z,94824.80
2023-01-29T10:16:24.342Z,94822.40
2023-01-29T10:18:51.835Z,94809.80
2023-01-29T10:21:19.311Z,94804.20
2023-01-29T10:23:46.866Z,94802.60
2023-01-29T10:26:14.439Z,94802.60
2023-01-29T10:28:46.417Z,94797.80
2023-01-29T10:31:14.728Z,94794.60
2023-01-29T10:33:49.018Z,94786.20
2023-01-29T10:36:26.950Z,94776.00
2023-01-29T10:38:56.000Z,94771.80
2023-01-29T10:41:23.886Z,94768.00
2023-01-29T10:43:51.460Z,94765.60
2023-01-29T10:46:18.937Z,94758.60
2023-01-29T10:48:46.492Z,94763.20
2023-01-29T10:51:14.771Z,94764.40
2023-01-29T10:53:42.355Z,94759.40
2023-01-29T10:56:21.963Z,94751.40
2023-01-29T10:58:50.868Z,94746.60
2023-01-29T11:01:18.446Z,94744.20
2023-01-29T11:03:46.005Z,94741.80
2023-01-29T11:06:14.035Z,94739.20
2023-01-29T11:08:41.700Z,94736.00
2023-01-29T11:11:12.151Z,94727.80
2023-01-29T11:13:39.743Z,94725.60
2023-01-29T11:16:07.346Z,94729.20
2023-01-29T11:18:34.874Z,94727.80
2023-01-29T11:21:02.980Z,94728.40
2023-01-29T11:23:30.593Z,94718.20
2023-01-29T11:25:58.459Z,94714.40
2023-01-29T11:28:25.986Z,94703.60
2023-01-29T11:30:53.593Z,94690.80
2023-01-29T11:33:21.297Z,94678.80
2023-01-29T11:35:48.848Z,94668.40
2023-01-29T11:38:16.510Z,94667.80
2023-01-29T11:40:44.061Z,94659.60
2023-01-29T11:43:11.911Z,94649.60
2023-01-29T11:45:39.396Z,94646.40
2023-01-29T11:48:06.886Z,94642.40
2023-01-29T11:50:34.448Z,94640.80
2023-01-29T11:53:01.979Z,94641.60
2023-01-29T11:55:33.070Z,94641.40
2023-01-29T11:58:05.580Z,94639.00
2023-01-29T12:00:33.651Z,94632.00
2023-01-29T12:03:01.149Z,94619.00
2023-01-29T12:05:29.132Z,94612.60
2023-01-29T12:07:56.736Z,94605.60
2023-01-29T12:10:24.223Z,94593.40
2023-01-29T12:12:51.742Z,94596.40
2023-01-29T12:15:19.714Z,94592.20
2023-01-29T12:17:47.430Z,94594.20
2023-01-29T12:20:15.362Z,94600.60
2023-01-29T12:22:43.222Z,94593.00
2023-01-29T12:25:10.704Z,94588.80
2023-01-29T12:27:38.266Z,94579.20
2023-01-29T12:30:06.296Z,94586.60
2023-01-29T12:32:33.838Z,94590.20
2023-01-29T12:35:01.657Z,94581.80
2023-01-29T12:37:29.168Z,94575.80
2023-01-29T12:39:56.714Z,94574.00
2023-01-29T12:42:24.299Z,94578.20
2023-01-29T12:44:51.896Z,94582.60
2023-01-29T12:47:20.910Z,94579.60
2023-01-29T12:49:53.670Z,94574.80
2023-01-29T12:52:21.699Z,94574.40
2023-01-29T12:54:49.406Z,94568.40
2023-01-29T12:57:18.208Z,94568.60
2023-01-29T12:59:46.491Z,94571.00
2023-01-29T13:02:16.114Z,94571.60
2023-01-29T13:04:43.821Z,94575.40
2023-01-29T13:07:12.306Z,94580.00
2023-01-29T13:09:39.874Z,94584.40
2023-01-29T13:12:07.480Z,94583.60
2023-01-29T13:14:34.985Z,94576.40
2023-01-29T13:17:02.565Z,94575.60
2023-01-29T13:19:30.359Z,94580.00
2023-01-29T13:21:58.102Z,94579.60
2023-01-29T13:24:25.613Z,94583.00
2023-01-29T13:26:53.263Z,94581.60
2023-01-29T13:29:20.766Z,94579.00
2023-01-29T13:31:48.383Z,94581.60
2023-01-29T13:34:16.020Z,94583.80
2023-01-29T13:36:43.871Z,94587.40
2023-01-29T13:39:11.420Z,94594.80
2023-01-29T13:41:39.044Z,94598.00
2023-01-29T13:44:07.433Z,94592.80
2023-01-29T13:46:35.286Z,94593.20
2023-01-29T13:49:05.121Z,94592.00
2023-01-29T13:51:32.631Z,94600.80
2023-01-29T13:54:03.289Z,94602.00
2023-01-29T13:56:31.260Z,94601.00
2023-01-29T13:58:58.896Z,94603.60
2023-01-29T14:01:26.562Z,94608.20
2023-01-29T14:04:09.616Z,94607.40
2023-01-29T14:06:37.177Z,94597.80
2023-01-29T14:09:04.717Z,94602.40
2023-01-29T14:11:32.212Z,94606.20
2023-01-29T14:13:59.697Z,94612.40
2023-01-29T14:16:27.414Z,94617.80
2023-01-29T14:18:55.508Z,94616.80
2023-01-29T14:21:25.168Z,94617.80
2023-01-29T14:23:52.747Z,94621.20
2023-01-29T14:26:20.289Z,94614.80
2023-01-29T14:28:47.921Z,94612.40
2023-01-29T14:31:15.603Z,94611.60
2023-01-29T14:33:43.594Z,94603.20
2023-01-29T14:36:12.393Z,94592.80
2023-01-29T14:38:40.135Z,94592.80
2023-01-29T14:41:07.996Z,94598.20
2023-01-29T14:43:35.563Z,94601.40
2023-01-29T14:46:03.185Z,94600.00
2023-01-29T14:48:30.712Z,94594.20
2023-01-29T14:50:59.218Z,94591.80
2023-01-29T14:53:27.102Z,94591.60
2023-01-29T14:55:54.609Z,94592.20
2023-01-29T14:58:22.099Z,94595.20
2023-01-29T15:00:49.875Z,94588.80
2023-01-29T15:03:17.419Z,94593.80
2023-01-29T15:05:45.003Z,94592.80
2023-01-29T15:08:12.656Z,94596.20
2023-01-29T15:10:43.244Z,94601.60
2023-01-29T15:13:10.845Z,94597.40
2023-01-29T15:15:38.391Z,94595.60
2023-01-29T15:18:06.085Z,94592.60
2023-01-29T15:20:33.724Z,94588.60
2023-01-29T15:23:03.276Z,94589.80
2023-01-29T15:25:31.158Z,94584.60
2023-01-29T15:27:58.857Z,94580.60
2023-01-29T15:30:26.596Z,94574.20
2023-01-29T15:32:57.251Z,94574.00
2023-01-29T15:35:24.720Z,94571.20
2023-01-29T15:37:52.248Z,94570.00
2023-01-29T15:40:20.196Z,94573.80
2023-01-29T15:42:48.747Z,94573.40
2023-01-29T15:45:16.810Z,94575.20
2023-01-29T15:47:44.561Z,94577.20
2023-01-29T15:50:12.267Z,94575.00
2023-01-29T15:52:39.887Z,94575.00
2023-01-29T15:55:07.475Z,94573.20
2023-01-29T15:57:35.952Z,94574.60
2023-01-29T16:00:04.574Z,94571.60
2023-01-29T16:02:32.115Z,94567.80
2023-01-29T16:04:59.686Z,94560.00
2023-01-29T16:07:27.225Z,94554.40
2023-01-29T16:09:54.719Z,94547.20
2023-01-29T16:12:22.252Z,94551.00
2023-01-29T16:14:49.997Z,94555.60
2023-01-29T16:17:17.663Z,94553.60
2023-01-29T16:19:45.242Z,94551.60
2023-01-29T16:22:12.764Z,94555.20
2023-01-29T16:24:40.320Z,94554.40
2023-01-29T16:27:07.858Z,94550.60
2023-01-29T16:29:35.463Z,94554.60
2023-01-29T16:32:03.222Z,94551.80
2023-01-29T16:34:31.752Z,94552.20
2023-01-29T16:36:59.373Z,94556.20
2023-01-29T16:39:28.087Z,94552.00
2023-01-29T16:41:55.672Z,94549.40
2023-01-29T16:44:23.325Z,94545.20
2023-01-29T16:46:54.115Z,94545.80
2023-01-29T16:49:21.905Z,94544.40
2023-01-29T16:51:49.634Z,94545.80
2023-01-29T16:54:18.413Z,94535.80
2023-01-29T16:56:45.961Z,94529.60
2023-01-29T16:59:13.475Z,94532.60
2023-01-29T17:01:41.341Z,94539.20
2023-01-29T17:04:08.986Z,94539.20
2023-01-29T17:06:36.637Z,94546.60
2023-01-29T17:09:04.761Z,94548.40
2023-01-29T17:11:32.638Z,94546.60
2023-01-29T17:14:00.597Z,94551.60
2023-01-29T17:16:28.252Z,94555.80
2023-01-29T17:18:55.945Z,94550.60
2023-01-29T17:21:23.662Z,94557.60
2023-01-29T17:23:51.223Z,94567.80
2023-01-29T17:26:18.912Z,94568.60
2023-01-29T17:28:46.496Z,94573.40
2023-01-29T17:31:14.224Z,94578.60
2023-01-29T17:33:42.084Z,94579.80
2023-01-29T17:36:09.842Z,94574.80
2023-01-29T17:38:37.662Z,94580.00
2023-01-29T17:41:05.388Z,94581.60
2023-01-29T17:43:33.317Z,94589.40
2023-01-29T17:46:00.986Z,94584.60
2023-01-29T17:48:28.605Z,94577.80
2023-01-29T17:50:56.132Z,94563.80
2023-01-29T17:53:24.843Z,94566.40
2023-01-29T17:55:54.084Z,94566.60
2023-01-29T17:58:21.848Z,94569.80
2023-01-29T18:00:49.390Z,94560.60
2023-01-29T18:03:16.867Z,94557.60
2023-01-29T18:05:44.580Z,94550.80
2023-01-29T18:08:12.381Z,94538.20
2023-01-29T18:10:40.107Z,94534.60
2023-01-29T18:13:07.823Z,94533.40
2023-01-29T18:15:35.614Z,94523.80
2023-01-29T18:18:03.327Z,94520.00
2023-01-29T18:20:31.039Z,94512.40
2023-01-29T18:22:58.855Z,94510.40
2023-01-29T18:25:26.391Z,94512.60
2023-01-29T18:27:54.867Z,94510.00
2023-01-29T18:30:22.678Z,94519.80
2023-01-29T18:32:50.584Z,94515.20
2023-01-29T18:35:18.533Z,94509.40
2023-01-29T18:37:46.596Z,94506.40
2023-01-29T18:40:17.259Z,94510.40
2023-01-29T18:42:45.175Z,94510.60
2023-01-29T18:45:13.269Z,94504.80
2023-01-29T18:47:40.836Z,94507.40
2023-01-29T18:50:08.650Z,94515.40
2023-01-29T18:52:36.584Z,94516.80
2023-01-29T18:55:04.309Z,94513.00
2023-01-29T18:58:28.251Z,94513.20
2023-01-29T19:00:20.093Z,94519.20
2023-01-29T19:02:47.924Z,94522.00
2023-01-29T19:05:16.981Z,94522.20
2023-01-29T19:07:45.195Z,94525.00
2023-01-29T19:10:13.061Z,94529.20
2023-01-29T19:12:42.268Z,94526.80
2023-01-29T19:15:09.819Z,94531.40
2023-01-29T19:17:37.434Z,94533.60
2023-01-29T19:20:05.220Z,94532.80
2023-01-29T19:22:32.746Z,94532.60
2023-01-29T19:25:00.643Z,94537.00
2023-01-29T19:27:30.678Z,94534.40
2023-01-29T19:29:59.451Z,94528.20
2023-01-29T19:32:29.096Z,94536.60
2023-01-29T19:34:57.856Z,94541.20
2023-01-29T19:37:25.570Z,94550.80
2023-01-29T19:39:54.049Z,94554.60
2023-01-29T19:42:21.624Z,94550.20
2023-01-29T19:44:51.043Z,94542.20
2023-01-29T19:47:19.002Z,94550.80
2023-01-29T19:49:46.900Z,94547.80
2023-01-29T19:52:51.254Z,94538.40
2023-01-29T19:55:19.837Z,94543.00
2023-01-29T19:57:48.269Z,94533.60
2023-01-29T20:00:17.663Z,94530.00
2023-01-29T20:02:45.606Z,94528.20
2023-01-29T20:05:13.323Z,94525.20
2023-01-29T20:07:42.570Z,94521.20
2023-01-29T20:10:11.722Z,94519.20
2023-01-29T20:12:39.367Z,94514.60
2023-01-29T20:15:07.687Z,94511.20
2023-01-29T20:17:35.501Z,94501.00
2023-01-29T20:20:04.135Z,94496.20
2023-01-29T20:22:31.653Z,94499.20
2023-01-29T20:25:00.410Z,94506.20
2023-01-29T20:27:28.120Z,94498.20
2023-01-29T20:29:55.964Z,94498.40
2023-01-29T20:32:23.681Z,94492.40
2023-01-29T20:34:52.399Z,94486.80
2023-01-29T20:37:20.186Z,94492.20
2023-01-29T20:39:47.912Z,94493.20
2023-01-29T20:42:18.065Z,94500.60
2023-01-29T20:44:45.728Z,94499.00
2023-01-29T20:47:13.749Z,94494.00
2023-01-29T20:49:41.422Z,94481.60
2023-01-29T20:52:10.742Z,94481.00
2023-01-29T20:54:38.280Z,94483.00
2023-01-29T20:57:05.976Z,94478.40
2023-01-29T20:59:33.855Z,94474.80
2023-01-29T21:02:01.448Z,94479.40
2023-01-29T21:04:31.355Z,94484.40
2023-01-29T21:06:59.010Z,94483.60
2023-01-29T21:09:26.711Z,94480.20
2023-01-29T21:11:54.619Z,94472.60
2023-01-29T21:14:22.308Z,94465.00
2023-01-29T21:16:49.952Z,94454.60
2023-01-29T21:19:17.608Z,94450.20
2023-01-29T21:21:45.218Z,94442.60
2023-01-29T21:24:13.013Z,94440.40
2023-01-29T21:26:40.846Z,94441.60
2023-01-29T21:29:08.494Z,94445.60
2023-01-29T21:31:36.125Z,94449.60
2023-01-29T21:34:05.171Z,94447.20
2023-01-29T21:36:32.933Z,94451.00
2023-01-29T21:39:00.550Z,94457.40
2023-01-29T21:41:47.418Z,94451.40
2023-01-29T21:44:15.631Z,94448.00
2023-01-29T21:46:43.172Z,94450.00
2023-01-29T21:49:10.737Z,94447.40
2023-01-29T21:51:38.403Z,94444.20
2023-01-29T21:54:05.883Z,94443.80
2023-01-29T21:56:33.390Z,94449.00
2023-01-29T21:59:02.278Z,94439.60
2023-01-29T22:01:37.644Z,94431.80
2023-01-29T22:04:08.702Z,94429.20
2023-01-29T22:06:36.314Z,94429.60
2023-01-29T22:09:03.935Z,94427.40
2023-01-29T22:11:31.600Z,94420.60
2023-01-29T22:14:01.262Z,94411.00
2023-01-29T22:16:29.877Z,94411.00
2023-01-29T22:18:57.422Z,94403.20
2023-01-29T22:21:24.930Z,94395.40
2023-01-29T22:23:52.500Z,94389.40
2023-01-29T22:26:20.145Z,94390.40
2023-01-29T22:28:47.718Z,94381.00
2023-01-29T22:31:15.353Z,94370.60
2023-01-29T22:33:42.970Z,94365.40
2023-01-29T22:36:10.601Z,94361.80
2023-01-29T22:38:38.192Z,94360.60
2023-01-29T22:41:05.941Z,94357.80
2023-01-29T22:43:33.432Z,94352.00
2023-01-29T22:46:00.944Z,94342.60
2023-01-29T22:48:30.639Z,94341.40
2023-01-29T22:51:09.431Z,94338.60
2023-01-29T22:53:37.791Z,94338.80
2023-01-29T22:56:05.312Z,94336.60
2023-01-29T22:58:32.785Z,94331.60
2023-01-29T23:01:00.356Z,94329.40
2023-01-29T23:03:27.815Z,94332.40
2023-01-29T23:05:55.310Z,94327.80
2023-01-29T23:08:22.881Z,94326.20
2023-01-29T23:10:50.386Z,94318.60
2023-01-29T23:13:18.232Z,94320.40
2023-01-29T23:15:45.786Z,94317.20
2023-01-29T23:18:13.441Z,94310.80
2023-01-29T23:20:40.964Z,94303.20
2023-01-29T23:23:08.546Z,94304.80
2023-01-29T23:25:54.814Z,94298.80
2023-01-29T23:28:22.492Z,94300.80
2023-01-29T23:30:52.042Z,94303.60
2023-01-29T23:33:21.810Z,94295.60
2023-01-29T23:35:49.441Z,94293.40
2023-01-29T23:38:17.104Z,94292.60
2023-01-29T23:40:45.619Z,94290.60
2023-01-29T23:43:13.253Z,94291.80
2023-01-29T23:45:40.737Z,94285.80
2023-01-29T23:48:08.242Z,94285.60
2023-01-29T23:50:35.788Z,94275.40
2023-01-29T23:53:03.261Z,94271.80
2023-01-29T23:55:30.852Z,94271.40
2023-01-29T23:57:58.372Z,94272.00
